Time;durP1;ratioP1;P1;durP2;ratioP2;P2;SDS_P1;SDS_P2;PMS_P1;PMS_P2;Temp;Humidity;BMP_temperature;BMP_pressure;BME280_temperature;BME280_humidity;BME280_pressure;Samples;Min_cycle;Max_cycle;Signal;HPM_P1;HPM_P2
2023/01/07 00:01:18;;;;;;;12.63;12.03;;;10.00;99.90;;;;;;5050437;28;20467;-46
2023/01/07 00:03:45;;;;;;;12.60;12.00;;;10.10;99.90;;;;;;5057959;28;20522;-51
2023/01/07 00:06:16;;;;;;;12.27;11.67;;;10.00;99.90;;;;;;5054065;28;20421;-45
2023/01/07 00:08:44;;;;;;;12.60;12.00;;;10.00;99.90;;;;;;5047202;28;21266;-47
2023/01/07 00:11:15;;;;;;;12.73;12.13;;;9.80;99.90;;;;;;5055645;28;20447;-46
2023/01/07 00:13:41;;;;;;;12.63;12.03;;;9.80;99.90;;;;;;5053686;28;20559;-46
2023/01/07 00:16:09;;;;;;;12.57;11.97;;;9.70;99.90;;;;;;5057982;28;20452;-47
2023/01/07 00:18:36;;;;;;;12.47;11.87;;;9.60;99.90;;;;;;5050550;28;21302;-51
2023/01/07 00:21:05;;;;;;;11.87;11.37;;;9.60;99.90;;;;;;5046148;28;20918;-50
2023/01/07 00:23:31;;;;;;;13.00;12.30;;;9.60;99.90;;;;;;5041879;28;20506;-50
2023/01/07 00:26:11;;;;;;;12.23;11.63;;;9.50;99.90;;;;;;5041754;28;20420;-48
2023/01/07 00:28:40;;;;;;;12.93;12.20;;;9.50;99.90;;;;;;5041636;28;20404;-46
2023/01/07 00:31:17;;;;;;;13.00;12.40;;;9.40;99.90;;;;;;5024413;28;21178;-49
2023/01/07 00:36:23;;;;;;;12.93;12.23;;;9.30;99.90;;;;;;5057215;28;20451;-51
2023/01/07 00:38:54;;;;;;;12.40;11.80;;;9.30;99.90;;;;;;5041002;28;20464;-47
2023/01/07 00:41:19;;;;;;;12.90;12.10;;;9.30;99.90;;;;;;5041164;28;20424;-43
2023/01/07 00:43:45;;;;;;;12.30;11.70;;;9.30;99.90;;;;;;5041908;28;20443;-53
2023/01/07 00:46:13;;;;;;;12.67;11.87;;;9.40;99.90;;;;;;5040627;28;20192;-46
2023/01/07 00:48:39;;;;;;;12.80;12.10;;;9.40;99.90;;;;;;5040727;28;20198;-48
2023/01/07 00:51:05;;;;;;;12.60;12.00;;;9.30;99.90;;;;;;5040044;28;20440;-49
2023/01/07 00:53:30;;;;;;;12.90;12.20;;;9.40;99.90;;;;;;5040024;28;20202;-46
2023/01/07 00:55:56;;;;;;;12.70;12.10;;;9.40;99.90;;;;;;5040211;28;20271;-46
2023/01/07 00:58:24;;;;;;;13.00;12.30;;;9.40;99.90;;;;;;5042252;28;20214;-46
2023/01/07 01:00:54;;;;;;;12.70;12.10;;;9.30;99.90;;;;;;5054081;28;20181;-46
2023/01/07 01:03:20;;;;;;;12.33;11.73;;;9.30;99.90;;;;;;5022558;28;20437;-46
2023/01/07 01:05:46;;;;;;;12.10;11.50;;;9.30;99.90;;;;;;5042904;28;20502;-45
2023/01/07 01:08:11;;;;;;;12.40;11.80;;;9.30;99.90;;;;;;5048473;28;20181;-47
2023/01/07 01:10:37;;;;;;;13.13;12.43;;;9.30;99.90;;;;;;5049107;28;20189;-46
2023/01/07 01:13:03;;;;;;;13.30;12.60;;;9.30;99.90;;;;;;5045289;28;20193;-46
2023/01/07 01:15:28;;;;;;;12.70;12.00;;;9.30;99.90;;;;;;5050226;28;20208;-50
2023/01/07 01:17:54;;;;;;;13.03;12.33;;;9.30;99.90;;;;;;5045876;28;20182;-48
2023/01/07 01:20:20;;;;;;;13.20;12.50;;;9.30;99.90;;;;;;5042924;28;20245;-45
2023/01/07 01:22:46;;;;;;;12.90;12.20;;;9.30;99.90;;;;;;5046036;28;20259;-46
2023/01/07 01:25:12;;;;;;;13.10;12.40;;;9.30;99.90;;;;;;5053014;28;20408;-47
2023/01/07 01:27:38;;;;;;;12.37;11.77;;;9.40;99.90;;;;;;5040358;28;20434;-48
2023/01/07 01:30:05;;;;;;;12.77;12.17;;;9.40;99.90;;;;;;5050968;28;20415;-47
2023/01/07 01:32:31;;;;;;;12.50;11.90;;;9.40;99.90;;;;;;5059396;28;20254;-46
2023/01/07 01:34:57;;;;;;;12.77;12.07;;;9.50;99.90;;;;;;5053891;28;20418;-46
2023/01/07 01:37:23;;;;;;;12.20;11.60;;;9.50;99.90;;;;;;5052154;28;20426;-45
2023/01/07 01:39:48;;;;;;;12.40;11.80;;;9.40;99.90;;;;;;5054186;28;20262;-49
2023/01/07 01:42:18;;;;;;;12.40;11.80;;;9.40;99.90;;;;;;5025357;28;20297;-46
2023/01/07 01:44:55;;;;;;;12.70;12.10;;;9.50;99.90;;;;;;5041995;28;20183;-47
2023/01/07 01:47:42;;;;;;;13.07;12.37;;;9.50;99.90;;;;;;5044927;28;20480;-45
2023/01/07 01:50:31;;;;;;;12.80;12.10;;;9.60;99.90;;;;;;5052847;28;20428;-45
2023/01/07 01:53:09;;;;;;;12.90;12.20;;;9.60;99.90;;;;;;5045285;28;20997;-48
2023/01/07 01:55:37;;;;;;;12.83;12.13;;;9.50;99.90;;;;;;5044178;28;20446;-46
2023/01/07 01:58:06;;;;;;;13.07;12.17;;;9.50;99.90;;;;;;5047522;28;20486;-48
2023/01/07 02:00:33;;;;;;;12.70;12.00;;;9.50;99.90;;;;;;5040189;28;20435;-47
2023/01/07 02:03:00;;;;;;;12.17;11.63;;;9.50;99.90;;;;;;5055955;28;20462;-48
2023/01/07 02:05:31;;;;;;;11.90;11.30;;;9.50;99.90;;;;;;5042653;28;20923;-47
2023/01/07 02:07:57;;;;;;;11.90;11.30;;;9.50;99.90;;;;;;5040751;28;20498;-47
2023/01/07 02:10:24;;;;;;;12.33;11.73;;;9.60;99.90;;;;;;5053708;28;20920;-48
2023/01/07 02:13:16;;;;;;;11.93;11.33;;;9.50;99.90;;;;;;5047690;28;20190;-47
2023/01/07 02:16:00;;;;;;;11.87;11.17;;;9.60;99.90;;;;;;5039801;28;20448;-44
2023/01/07 02:18:46;;;;;;;12.13;11.53;;;9.60;99.90;;;;;;5041026;28;20541;-48
2023/01/07 02:21:33;;;;;;;12.00;11.40;;;9.60;99.90;;;;;;5049020;28;20423;-46
2023/01/07 02:24:10;;;;;;;12.20;11.60;;;9.60;99.90;;;;;;5053721;28;20578;-49
2023/01/07 02:26:53;;;;;;;12.07;11.47;;;9.50;99.90;;;;;;5051312;28;20521;-46
2023/01/07 02:29:53;;;;;;;11.30;10.80;;;9.50;99.90;;;;;;5050117;28;20526;-45
2023/01/07 02:32:44;;;;;;;12.17;11.57;;;9.50;99.90;;;;;;5062400;28;20411;-47
2023/01/07 02:35:42;;;;;;;12.37;11.70;;;9.50;99.90;;;;;;5062553;28;20451;-48
2023/01/07 02:38:14;;;;;;;12.43;11.83;;;9.50;99.90;;;;;;5051477;28;20455;-46
2023/01/07 02:41:05;;;;;;;12.00;11.40;;;9.50;99.90;;;;;;5049507;28;20411;-48
2023/01/07 02:43:30;;;;;;;12.07;11.47;;;9.60;99.90;;;;;;5055392;28;20913;-47
2023/01/07 02:46:15;;;;;;;11.83;11.33;;;9.70;99.90;;;;;;5059316;28;20430;-48
2023/01/07 02:48:43;;;;;;;12.10;11.53;;;9.60;99.90;;;;;;5038606;28;20185;-47
2023/01/07 02:51:08;;;;;;;11.73;11.13;;;9.60;99.90;;;;;;5045453;28;20440;-47
2023/01/07 02:53:34;;;;;;;12.30;11.70;;;9.70;99.90;;;;;;5053586;28;20470;-44
2023/01/07 02:56:40;;;;;;;12.17;11.50;;;9.70;99.90;;;;;;5051019;28;20196;-44
2023/01/07 02:59:35;;;;;;;11.70;11.20;;;9.70;99.90;;;;;;5045326;28;21444;-48
2023/01/07 03:02:38;;;;;;;12.10;11.50;;;9.70;99.90;;;;;;5031283;28;20478;-50
2023/01/07 03:05:32;;;;;;;11.50;11.00;;;9.70;99.90;;;;;;5044651;28;20818;-50
2023/01/07 03:08:17;;;;;;;11.67;11.10;;;9.80;99.90;;;;;;5047377;28;20436;-45
2023/01/07 03:10:59;;;;;;;11.43;10.93;;;9.80;99.90;;;;;;5048551;28;20459;-48
2023/01/07 03:13:53;;;;;;;11.43;10.93;;;9.80;99.90;;;;;;5042403;28;20949;-45
2023/01/07 03:16:33;;;;;;;11.60;10.90;;;9.90;99.90;;;;;;5037632;28;20463;-53
2023/01/07 03:19:02;;;;;;;10.90;10.40;;;9.90;99.90;;;;;;5043429;28;20826;-50
2023/01/07 03:21:31;;;;;;;11.03;10.53;;;9.90;99.90;;;;;;5044072;28;20524;-44
2023/01/07 03:23:59;;;;;;;11.13;10.63;;;10.00;99.90;;;;;;5055479;28;20800;-53
2023/01/07 03:26:30;;;;;;;11.13;10.63;;;10.00;99.90;;;;;;5051028;28;20453;-44
2023/01/07 03:28:59;;;;;;;11.00;10.50;;;10.00;99.90;;;;;;5051989;28;20525;-47
2023/01/07 03:31:26;;;;;;;11.17;10.67;;;10.00;99.90;;;;;;5042239;28;20444;-47
2023/01/07 03:34:04;;;;;;;10.97;10.47;;;9.90;99.90;;;;;;5071592;28;20854;-46
2023/01/07 03:36:36;;;;;;;10.60;10.20;;;9.90;99.90;;;;;;5042483;28;20459;-46
2023/01/07 03:39:03;;;;;;;11.20;10.70;;;9.80;99.90;;;;;;5041038;28;20472;-48
2023/01/07 03:44:15;;;;;;;11.03;10.53;;;9.80;99.90;;;;;;5030636;28;20420;-46
2023/01/07 03:46:41;;;;;;;11.30;10.80;;;9.70;99.90;;;;;;5043565;28;20436;-47
2023/01/07 03:49:07;;;;;;;10.87;10.37;;;9.60;99.90;;;;;;5039567;28;20193;-49
2023/01/07 03:51:32;;;;;;;11.37;10.80;;;9.60;99.90;;;;;;5040929;28;20440;-47
2023/01/07 03:53:58;;;;;;;10.60;10.10;;;9.60;99.90;;;;;;5052670;28;20209;-49
2023/01/07 03:56:23;;;;;;;10.80;10.30;;;9.60;99.90;;;;;;5047845;28;20272;-44
2023/01/07 03:58:49;;;;;;;10.73;10.23;;;9.60;99.90;;;;;;5033950;28;20217;-47
2023/01/07 04:01:15;;;;;;;10.90;10.40;;;9.70;99.90;;;;;;5050623;28;20182;-48
2023/01/07 04:03:40;;;;;;;10.77;10.30;;;9.60;99.90;;;;;;5051166;28;20197;-47
2023/01/07 04:06:06;;;;;;;10.90;10.40;;;9.70;99.90;;;;;;5058465;28;20189;-45
2023/01/07 04:08:31;;;;;;;10.40;10.00;;;9.80;99.90;;;;;;5054715;28;20264;-48
2023/01/07 04:10:57;;;;;;;10.90;10.40;;;9.80;99.90;;;;;;5047193;28;20544;-47
2023/01/07 04:13:22;;;;;;;10.90;10.40;;;9.80;99.90;;;;;;5049750;28;20210;-46
2023/01/07 04:15:48;;;;;;;10.50;10.10;;;9.80;99.90;;;;;;5047778;28;20193;-47
2023/01/07 04:18:14;;;;;;;10.53;10.13;;;9.70;99.90;;;;;;5060716;28;20199;-45
2023/01/07 04:20:39;;;;;;;10.70;10.20;;;9.70;99.90;;;;;;5048933;28;20182;-46
2023/01/07 04:23:05;;;;;;;10.53;10.00;;;9.70;99.90;;;;;;5043217;28;20300;-49
2023/01/07 04:25:31;;;;;;;10.50;10.10;;;9.60;99.90;;;;;;5050189;28;20189;-46
2023/01/07 04:27:56;;;;;;;9.60;9.20;;;9.70;99.90;;;;;;5039712;28;20227;-47
2023/01/07 04:30:22;;;;;;;11.13;10.63;;;9.70;99.90;;;;;;5049315;28;20980;-48
2023/01/07 04:32:48;;;;;;;10.50;10.00;;;9.70;99.90;;;;;;5054583;28;20544;-47
2023/01/07 04:35:13;;;;;;;10.73;10.33;;;9.60;99.90;;;;;;5049007;28;20193;-46
2023/01/07 04:37:39;;;;;;;10.20;9.80;;;9.60;99.90;;;;;;5052289;28;20272;-48
2023/01/07 04:40:05;;;;;;;10.50;10.10;;;9.60;99.90;;;;;;5047276;28;20213;-45
2023/01/07 04:42:31;;;;;;;10.60;10.17;;;9.60;99.90;;;;;;5047731;28;20197;-48
2023/01/07 04:44:56;;;;;;;10.47;10.07;;;9.60;99.90;;;;;;5051549;28;20785;-44
2023/01/07 04:47:22;;;;;;;10.40;10.00;;;9.60;99.90;;;;;;5041786;28;20213;-47
2023/01/07 04:49:47;;;;;;;10.60;10.10;;;9.70;99.90;;;;;;5045187;28;20230;-44
2023/01/07 04:52:13;;;;;;;10.20;9.80;;;9.80;99.90;;;;;;5048152;28;20225;-44
2023/01/07 04:54:39;;;;;;;10.40;10.00;;;9.70;99.90;;;;;;5036460;28;20206;-48
2023/01/07 04:57:04;;;;;;;10.00;9.60;;;9.60;99.90;;;;;;5047543;28;20610;-49
2023/01/07 04:59:30;;;;;;;10.27;9.87;;;9.50;99.90;;;;;;5050481;28;20209;-47
2023/01/07 05:01:55;;;;;;;10.50;10.10;;;9.40;99.90;;;;;;5049263;28;20643;-49
2023/01/07 05:04:21;;;;;;;9.93;9.53;;;9.50;99.90;;;;;;5041459;28;20189;-48
2023/01/07 05:06:47;;;;;;;10.10;9.60;;;9.60;99.90;;;;;;5050597;28;20195;-46
2023/01/07 05:09:12;;;;;;;9.80;9.20;;;9.70;99.90;;;;;;5058645;28;20181;-49
2023/01/07 05:11:38;;;;;;;10.07;9.57;;;9.70;99.90;;;;;;5041467;28;20250;-48
2023/01/07 05:14:04;;;;;;;10.20;9.80;;;9.70;99.90;;;;;;5047111;28;20213;-45
2023/01/07 05:16:29;;;;;;;10.30;9.90;;;9.70;99.90;;;;;;5051858;28;20186;-46
2023/01/07 05:18:55;;;;;;;9.40;9.00;;;9.80;99.90;;;;;;5057172;28;20205;-47
2023/01/07 05:21:20;;;;;;;9.80;9.40;;;9.80;99.90;;;;;;5045116;28;20317;-49
2023/01/07 05:23:46;;;;;;;9.43;9.03;;;9.80;99.90;;;;;;5059537;28;20304;-51
2023/01/07 05:26:12;;;;;;;10.03;9.63;;;9.80;99.90;;;;;;5042241;28;20201;-54
2023/01/07 05:28:37;;;;;;;9.57;9.17;;;9.80;99.90;;;;;;5046861;28;20303;-47
2023/01/07 05:31:03;;;;;;;10.40;10.00;;;9.70;99.90;;;;;;5050873;28;20189;-47
2023/01/07 05:33:28;;;;;;;10.50;10.10;;;9.70;99.90;;;;;;5043353;28;20293;-46
2023/01/07 05:35:54;;;;;;;9.80;9.40;;;9.60;99.90;;;;;;5046837;28;20182;-47
2023/01/07 05:38:20;;;;;;;10.80;10.30;;;9.50;99.90;;;;;;5057865;28;20678;-47
2023/01/07 05:40:48;;;;;;;11.00;10.50;;;9.40;99.90;;;;;;5056684;28;20189;-48
2023/01/07 05:43:15;;;;;;;10.80;10.30;;;9.40;99.90;;;;;;5033235;28;20191;-45
2023/01/07 05:45:44;;;;;;;10.83;10.33;;;9.40;99.90;;;;;;5055042;28;20413;-45
2023/01/07 05:48:10;;;;;;;10.80;10.30;;;9.40;99.90;;;;;;5049398;28;20435;-46
2023/01/07 05:50:35;;;;;;;11.27;10.67;;;9.30;99.90;;;;;;5044566;28;20424;-46
2023/01/07 05:53:01;;;;;;;10.70;10.20;;;9.40;99.90;;;;;;5042053;28;21072;-46
2023/01/07 05:55:27;;;;;;;10.80;10.30;;;9.40;99.90;;;;;;5039587;28;20637;-46
2023/01/07 05:57:52;;;;;;;11.30;10.80;;;9.30;99.90;;;;;;5047157;28;20184;-45
2023/01/07 06:00:18;;;;;;;10.53;10.13;;;9.30;99.90;;;;;;5043648;28;20332;-48
2023/01/07 06:02:44;;;;;;;11.67;11.07;;;9.30;99.90;;;;;;5047738;28;20731;-46
2023/01/07 06:05:10;;;;;;;10.97;10.47;;;9.30;99.90;;;;;;5046732;28;20192;-46
2023/01/07 06:07:35;;;;;;;11.67;11.17;;;9.30;99.90;;;;;;5045035;28;20186;-43
2023/01/07 06:10:01;;;;;;;11.10;10.53;;;9.30;99.90;;;;;;5053950;28;20495;-46
2023/01/07 06:12:27;;;;;;;12.13;11.53;;;9.30;99.90;;;;;;5052250;28;20193;-48
2023/01/07 06:14:52;;;;;;;11.80;11.20;;;9.30;99.90;;;;;;5046472;28;20439;-45
2023/01/07 06:17:18;;;;;;;12.43;11.83;;;9.30;99.90;;;;;;5046919;28;20190;-48
2023/01/07 06:19:44;;;;;;;11.70;11.10;;;9.20;99.90;;;;;;5051184;28;20223;-47
2023/01/07 06:22:10;;;;;;;12.10;11.40;;;9.30;99.90;;;;;;5048603;28;20190;-49
2023/01/07 06:24:36;;;;;;;12.30;11.70;;;9.20;99.90;;;;;;5053003;28;20589;-45
2023/01/07 06:27:01;;;;;;;11.60;11.00;;;9.20;99.90;;;;;;5051864;28;20570;-46
2023/01/07 06:29:27;;;;;;;12.00;11.37;;;9.30;99.90;;;;;;5049606;28;20721;-45
2023/01/07 06:31:52;;;;;;;11.87;11.27;;;9.30;99.90;;;;;;5050983;28;20610;-52
2023/01/07 06:34:18;;;;;;;10.90;10.40;;;9.30;99.90;;;;;;5055241;28;20194;-46
2023/01/07 06:36:44;;;;;;;12.00;11.40;;;9.30;99.90;;;;;;5065772;28;20177;-46
2023/01/07 06:39:10;;;;;;;12.00;11.30;;;9.20;99.90;;;;;;5053395;28;21106;-45
2023/01/07 06:41:36;;;;;;;12.17;11.47;;;9.20;99.90;;;;;;5048429;28;20178;-47
2023/01/07 06:44:01;;;;;;;12.03;11.33;;;9.20;99.90;;;;;;5053889;28;20489;-48
2023/01/07 06:46:27;;;;;;;12.07;11.27;;;9.10;99.90;;;;;;5047039;28;20656;-47
2023/01/07 06:48:52;;;;;;;12.20;11.50;;;9.20;99.90;;;;;;5049529;28;20189;-46
2023/01/07 06:51:18;;;;;;;12.37;11.77;;;9.20;99.90;;;;;;5049147;28;20558;-44
2023/01/07 06:53:44;;;;;;;12.13;11.53;;;9.20;99.90;;;;;;5047711;28;20182;-49
2023/01/07 06:56:09;;;;;;;12.37;11.67;;;9.20;99.90;;;;;;5048507;28;20189;-43
2023/01/07 06:58:35;;;;;;;12.50;11.80;;;9.20;99.90;;;;;;5050321;28;20590;-47
2023/01/07 07:01:05;;;;;;;12.07;11.47;;;9.20;99.90;;;;;;5051723;28;20184;-48
2023/01/07 07:03:31;;;;;;;12.00;11.40;;;9.20;99.90;;;;;;5045089;28;20188;-45
2023/01/07 07:05:56;;;;;;;12.40;11.67;;;9.20;99.90;;;;;;5051018;28;20427;-45
2023/01/07 07:08:22;;;;;;;12.00;11.40;;;9.10;99.90;;;;;;5049414;28;20793;-46
2023/01/07 07:10:48;;;;;;;12.23;11.57;;;9.20;99.90;;;;;;5055581;28;20196;-46
2023/01/07 07:13:13;;;;;;;12.93;12.23;;;9.10;99.90;;;;;;5053517;28;20238;-47
2023/01/07 07:15:39;;;;;;;12.70;12.00;;;9.10;99.90;;;;;;5045364;28;20180;-46
2023/01/07 07:18:04;;;;;;;12.60;11.93;;;9.20;99.90;;;;;;5050651;28;20185;-45
2023/01/07 07:20:30;;;;;;;11.80;11.20;;;9.20;99.90;;;;;;5054161;28;20562;-48
2023/01/07 07:22:55;;;;;;;12.30;11.70;;;9.30;99.90;;;;;;5045971;28;20184;-49
2023/01/07 07:25:21;;;;;;;13.20;12.50;;;9.30;99.90;;;;;;5045475;28;20213;-50
2023/01/07 07:27:47;;;;;;;13.37;12.57;;;9.30;99.90;;;;;;5054202;28;20185;-47
2023/01/07 07:30:14;;;;;;;11.73;11.13;;;9.30;99.90;;;;;;5054926;28;20184;-44
2023/01/07 07:32:40;;;;;;;11.93;11.33;;;9.40;99.90;;;;;;5054433;28;20366;-47
2023/01/07 07:35:06;;;;;;;12.00;11.40;;;9.40;99.90;;;;;;5040648;28;20436;-47
2023/01/07 07:37:31;;;;;;;11.50;10.90;;;9.40;99.90;;;;;;5041565;28;20600;-44
2023/01/07 07:39:57;;;;;;;11.57;10.87;;;9.50;99.90;;;;;;5054227;28;20451;-46
2023/01/07 07:42:23;;;;;;;11.70;11.10;;;9.40;99.90;;;;;;5052062;28;20182;-44
2023/01/07 07:44:49;;;;;;;11.33;10.83;;;9.50;99.90;;;;;;5051626;28;20200;-47
2023/01/07 07:47:14;;;;;;;10.63;10.03;;;9.50;99.90;;;;;;5047051;28;20193;-44
2023/01/07 07:49:42;;;;;;;11.80;11.20;;;9.50;99.90;;;;;;5043585;28;20771;-46
2023/01/07 07:52:08;;;;;;;12.63;12.00;;;9.60;99.90;;;;;;5028476;28;20205;-48
2023/01/07 07:54:34;;;;;;;11.50;10.90;;;9.60;99.90;;;;;;5049302;28;20451;-46
2023/01/07 07:56:59;;;;;;;12.10;11.50;;;9.60;99.90;;;;;;5058866;28;20898;-49
2023/01/07 07:59:25;;;;;;;11.90;11.30;;;9.60;99.90;;;;;;5045157;28;20731;-47
2023/01/07 08:01:54;;;;;;;11.47;10.80;;;9.50;99.90;;;;;;5057072;28;20177;-47
2023/01/07 08:04:23;;;;;;;11.47;10.87;;;9.50;99.90;;;;;;5046042;28;20182;-49
2023/01/07 08:06:48;;;;;;;11.43;10.83;;;9.50;99.90;;;;;;5057978;28;20489;-46
2023/01/07 08:09:14;;;;;;;11.50;10.90;;;9.50;99.90;;;;;;5042579;28;20442;-48
2023/01/07 08:11:41;;;;;;;10.40;9.80;;;9.60;99.90;;;;;;5041367;28;20240;-50
2023/01/07 08:14:08;;;;;;;12.23;11.53;;;9.60;99.90;;;;;;5026025;28;20211;-45
2023/01/07 08:16:33;;;;;;;11.80;11.10;;;9.70;99.90;;;;;;5046277;28;20625;-47
2023/01/07 08:18:59;;;;;;;11.80;11.20;;;9.70;99.90;;;;;;5051119;28;20472;-48
2023/01/07 08:21:25;;;;;;;11.60;10.87;;;9.80;99.90;;;;;;5030715;28;20190;-51
2023/01/07 08:23:50;;;;;;;11.57;10.87;;;9.80;99.90;;;;;;5035919;28;20307;-46
2023/01/07 08:26:16;;;;;;;11.23;10.53;;;9.90;99.90;;;;;;5051664;28;20181;-50
2023/01/07 08:28:42;;;;;;;12.50;11.80;;;9.90;99.90;;;;;;5049604;28;20230;-49
2023/01/07 08:31:08;;;;;;;14.03;13.13;;;9.90;99.90;;;;;;5054596;28;20193;-48
2023/01/07 08:33:36;;;;;;;14.40;13.50;;;9.80;99.90;;;;;;5043249;28;20925;-46
2023/01/07 08:36:06;;;;;;;13.33;12.53;;;9.80;99.90;;;;;;5046847;28;20952;-50
2023/01/07 08:38:31;;;;;;;13.47;12.67;;;9.80;99.90;;;;;;5044618;28;20434;-50
2023/01/07 08:40:58;;;;;;;14.47;13.50;;;9.80;99.90;;;;;;5046924;28;20498;-45
2023/01/07 08:43:25;;;;;;;14.83;13.80;;;;;;;;;;5040950;28;20636;-51
2023/01/07 08:45:51;;;;;;;12.52;11.73;;;9.70;99.90;;;;;;5035779;28;20474;-43
2023/01/07 08:48:17;;;;;;;14.63;13.63;;;;;;;;;;5035243;28;20657;-45
2023/01/07 08:50:42;;;;;;;13.60;12.60;;;9.80;99.90;;;;;;5047608;28;20406;-49
2023/01/07 08:53:08;;;;;;;14.07;13.17;;;9.90;99.90;;;;;;5050091;28;20649;-51
2023/01/07 08:55:34;;;;;;;14.80;13.83;;;9.90;99.90;;;;;;5041216;28;20194;-47
2023/01/07 08:57:59;;;;;;;15.03;14.10;;;9.90;99.90;;;;;;5028109;28;20182;-48
2023/01/07 09:00:26;;;;;;;15.10;14.00;;;9.90;99.90;;;;;;5058773;28;20209;-48
2023/01/07 09:02:51;;;;;;;14.70;13.70;;;10.00;99.90;;;;;;5052027;28;20211;-47
2023/01/07 09:05:17;;;;;;;14.17;13.27;;;10.20;99.90;;;;;;5036889;28;20427;-45
2023/01/07 09:07:43;;;;;;;13.80;12.90;;;10.30;99.90;;;;;;5045448;28;20621;-50
2023/01/07 09:10:09;;;;;;;13.30;12.40;;;10.50;99.90;;;;;;5033719;28;20205;-50
2023/01/07 09:12:36;;;;;;;13.30;12.53;;;10.50;99.90;;;;;;5038215;28;20216;-47
2023/01/07 09:15:01;;;;;;;13.93;13.13;;;10.60;99.90;;;;;;5041989;28;20450;-50
2023/01/07 09:17:27;;;;;;;13.57;12.77;;;10.70;99.90;;;;;;5040432;28;20437;-48
2023/01/07 09:19:53;;;;;;;12.87;12.10;;;10.80;99.90;;;;;;5036847;28;20198;-48
2023/01/07 09:22:18;;;;;;;14.70;13.70;;;10.70;99.90;;;;;;5043395;28;20541;-48
2023/01/07 09:24:44;;;;;;;14.73;13.80;;;10.60;99.90;;;;;;5026621;28;20245;-49
2023/01/07 09:27:10;;;;;;;13.80;13.00;;;10.50;99.90;;;;;;5033376;28;20193;-51
2023/01/07 09:29:36;;;;;;;13.73;12.90;;;10.50;99.90;;;;;;5037473;28;20447;-48
2023/01/07 09:32:01;;;;;;;13.50;12.60;;;10.50;99.90;;;;;;5037758;28;20243;-48
2023/01/07 09:34:27;;;;;;;14.30;13.40;;;10.60;99.90;;;;;;5038278;28;20210;-50
2023/01/07 09:36:52;;;;;;;14.30;13.40;;;10.70;99.90;;;;;;5042254;28;20193;-50
2023/01/07 09:39:18;;;;;;;14.57;13.67;;;10.80;99.90;;;;;;5038041;28;20220;-50
2023/01/07 09:42:10;;;;;;;14.00;13.00;;;10.80;99.90;;;;;;5053988;28;20258;-47
2023/01/07 09:45:08;;;;;;;14.10;13.10;;;10.80;99.90;;;;;;5051629;28;20347;-48
2023/01/07 09:47:36;;;;;;;14.20;13.30;;;10.70;99.90;;;;;;5050952;28;20435;-47
2023/01/07 09:50:17;;;;;;;14.87;13.87;;;10.80;99.90;;;;;;5055210;28;20518;-50
2023/01/07 09:52:49;;;;;;;16.17;15.07;;;10.80;99.90;;;;;;5049496;28;20439;-51
2023/01/07 09:55:25;;;;;;;17.80;16.70;;;;;;;;;;5053832;28;20450;-51
2023/01/07 09:57:51;;;;;;;15.40;14.30;;;;;;;;;;5057177;28;20434;-49
2023/01/07 10:00:18;;;;;;;14.35;13.35;;;;;;;;;;5038254;28;20949;-46
2023/01/07 10:03:21;;;;;;;14.70;13.70;;;10.90;99.90;;;;;;5045125;28;20423;-47
2023/01/07 10:05:59;;;;;;;15.93;14.73;;;11.10;99.90;;;;;;5032045;28;20432;-50
2023/01/07 10:08:44;;;;;;;14.90;13.90;;;11.10;99.90;;;;;;5044290;28;20511;-54
2023/01/07 10:11:23;;;;;;;15.40;14.50;;;11.20;99.90;;;;;;5043858;28;20435;-50
2023/01/07 10:14:34;;;;;;;14.43;13.53;;;11.30;99.90;;;;;;5042300;28;20439;-52
2023/01/07 10:17:42;;;;;;;14.87;13.90;;;11.30;99.90;;;;;;5025546;28;20444;-51
2023/01/07 10:20:42;;;;;;;14.37;13.47;;;11.30;99.90;;;;;;5035331;28;20468;-50
2023/01/07 10:23:27;;;;;;;14.33;13.43;;;11.40;99.90;;;;;;5046159;28;20524;-51
2023/01/07 10:25:54;;;;;;;13.30;12.50;;;11.40;99.90;;;;;;5023245;28;20979;-52
2023/01/07 10:28:27;;;;;;;14.77;13.77;;;11.50;99.90;;;;;;5045115;28;20480;-48
2023/01/07 10:30:52;;;;;;;14.70;13.73;;;11.50;99.90;;;;;;5045189;28;21180;-48
2023/01/07 10:33:29;;;;;;;14.53;13.63;;;11.50;99.90;;;;;;5042468;28;20493;-49
2023/01/07 10:36:33;;;;;;;15.00;14.00;;;11.60;99.90;;;;;;5041313;28;20210;-52
